Time;durP1;ratioP1;P1;durP2;ratioP2;P2;SDS_P1;SDS_P2;PMS_P1;PMS_P2;Temp;Humidity;BMP_temperature;BMP_pressure;BME280_temperature;BME280_humidity;BME280_pressure;Samples;Min_cycle;Max_cycle;Signal;HPM_P1;HPM_P2
2022/06/02 00:01:34;;;;;;;3.53;3.30;;;;;;;;;;5000739;28;20022;-68
2022/06/02 00:04:05;;;;;;;3.83;3.50;;;;;;;;;;4998648;28;20162;-68
2022/06/02 00:06:33;;;;;;;5.90;3.65;;;;;;;;;;5001091;28;20105;-68
2022/06/02 00:09:17;;;;;;;3.53;3.22;;;;;;;;;;4974630;28;20365;-68
2022/06/02 00:11:45;;;;;;;4.40;3.78;;;;;;;;;;4996591;28;20325;-69
2022/06/02 00:14:17;;;;;;;5.65;3.38;;;;;;;;;;4983570;28;20021;-68
2022/06/02 00:16:59;;;;;;;3.97;3.53;;;;;;;;;;5001369;28;20117;-69
2022/06/02 00:19:30;;;;;;;4.15;3.75;;;;;;;;;;5002779;28;20045;-67
2022/06/02 00:22:04;;;;;;;3.85;3.55;;;;;;;;;;5000810;28;20023;-69
2022/06/02 00:24:42;;;;;;;4.53;3.88;;;;;;;;;;4984065;28;20503;-68
2022/06/02 00:27:07;;;;;;;4.63;3.75;;;;;;;;;;4978711;28;20106;-68
2022/06/02 00:29:45;;;;;;;4.60;4.20;;;;;;;;;;5006105;28;20030;-69
2022/06/02 00:32:34;;;;;;;4.85;3.72;;;;;;;;;;4983268;28;20459;-68
2022/06/02 00:35:18;;;;;;;4.22;3.80;;;;;;;;;;4997404;28;20084;-68
2022/06/02 00:38:10;;;;;;;5.18;4.40;;;;;;;;;;4984490;28;20242;-68
2022/06/02 00:40:35;;;;;;;4.57;3.72;;;;;;;;;;4964588;28;20038;-68
2022/06/02 00:43:18;;;;;;;5.22;3.83;;;;;;;;;;5001328;28;20018;-69
2022/06/02 00:45:44;;;;;;;5.55;4.18;;;;;;;;;;4984866;28;20562;-68
2022/06/02 00:48:13;;;;;;;4.00;3.70;;;;;;;;;;5000950;28;20054;-68
2022/06/02 00:50:47;;;;;;;5.15;4.05;;;;;;;;;;4985115;28;20117;-68
2022/06/02 00:53:19;;;;;;;4.55;4.15;;;;;;;;;;4982075;28;20017;-69
2022/06/02 00:58:47;;;;;;;5.20;4.30;;;;;;;;;;5004386;28;20028;-68
2022/06/02 01:01:14;;;;;;;5.22;3.88;;;;;;;;;;4982951;28;20018;-68
2022/06/02 01:03:48;;;;;;;4.93;4.53;;;;;;;;;;5004429;28;20464;-67
2022/06/02 01:06:26;;;;;;;4.72;4.32;;;;;;;;;;4983490;28;20025;-68
2022/06/02 01:09:10;;;;;;;5.25;4.50;;;;;;;;;;4999285;28;20116;-69
2022/06/02 01:11:42;;;;;;;4.53;4.22;;;;;;;;;;5001731;28;20087;-68
2022/06/02 01:14:22;;;;;;;4.30;4.00;;;;;;;;;;4983304;28;20523;-68
2022/06/02 01:17:15;;;;;;;5.25;3.88;;;;;;;;;;5001898;28;20030;-68
2022/06/02 01:19:44;;;;;;;4.63;4.22;;;;;;;;;;4963738;28;20037;-68
2022/06/02 01:22:12;;;;;;;4.78;4.28;;;;;;;;;;4997007;28;20070;-68
2022/06/02 01:24:46;;;;;;;6.32;5.45;;;;;;;;;;5000633;28;20049;-68
2022/06/02 01:27:14;;;;;;;5.72;5.13;;;;;;;;;;4979499;28;20022;-68
2022/06/02 01:29:51;;;;;;;6.03;5.00;;;;;;;;;;4985492;28;20029;-68
2022/06/02 01:32:20;;;;;;;4.97;4.50;;;;;;;;;;4983013;28;20022;-68
2022/06/02 01:35:09;;;;;;;6.43;4.60;;;;;;;;;;4983204;28;20037;-67
2022/06/02 01:37:46;;;;;;;6.35;5.13;;;;;;;;;;4988869;28;20070;-68
2022/06/02 01:40:21;;;;;;;5.85;5.32;;;;;;;;;;4978391;28;20315;-68
2022/06/02 01:42:53;;;;;;;5.55;4.93;;;;;;;;;;4984570;28;20040;-68
2022/06/02 01:45:38;;;;;;;5.53;5.00;;;;;;;;;;4981757;28;20435;-67
2022/06/02 01:48:23;;;;;;;5.53;5.03;;;;;;;;;;4981761;28;20103;-68
2022/06/02 01:50:54;;;;;;;5.13;4.63;;;;;;;;;;4961514;28;20026;-68
2022/06/02 01:53:22;;;;;;;5.25;4.80;;;;;;;;;;4982037;28;20025;-68
2022/06/02 01:55:57;;;;;;;5.45;4.93;;;;;;;;;;4996572;28;20121;-67
2022/06/02 01:58:42;;;;;;;5.57;5.03;;;;;;;;;;4988106;28;20104;-68
2022/06/02 02:01:32;;;;;;;7.50;5.45;;;;;;;;;;4983604;28;20026;-69
2022/06/02 02:03:57;;;;;;;5.85;5.28;;;;;;;;;;4984059;28;20032;-68
2022/06/02 02:06:23;;;;;;;9.52;5.55;;;;;;;;;;4984967;28;20022;-68
2022/06/02 02:09:03;;;;;;;5.93;5.43;;;;;;;;;;4984461;28;20081;-68
2022/06/02 02:11:44;;;;;;;5.47;4.97;;;;;;;;;;4996359;28;20040;-69
2022/06/02 02:14:28;;;;;;;6.03;5.53;;;;;;;;;;4999582;28;20090;-68
2022/06/02 02:17:02;;;;;;;5.70;5.20;;;;;;;;;;5003803;28;20490;-68
2022/06/02 02:19:37;;;;;;;5.97;5.38;;;;;;;;;;5001761;28;20126;-69
2022/06/02 02:22:15;;;;;;;6.18;5.15;;;;;;;;;;4997801;28;20018;-68
2022/06/02 02:24:56;;;;;;;8.10;5.50;;;;;;;;;;4999403;28;20036;-67
2022/06/02 02:27:27;;;;;;;6.88;6.28;;;;;;;;;;4982167;28;20063;-68
2022/06/02 02:30:06;;;;;;;6.20;5.60;;;;;;;;;;5002730;28;20018;-67
2022/06/02 02:32:34;;;;;;;6.88;5.90;;;;;;;;;;5000875;28;20036;-69
2022/06/02 02:35:00;;;;;;;6.40;5.88;;;;;;;;;;4998379;28;20199;-69
2022/06/02 02:37:30;;;;;;;6.80;6.20;;;;;;;;;;4982599;28;20053;-68
2022/06/02 02:40:09;;;;;;;6.65;5.72;;;;;;;;;;4981475;28;20033;-68
2022/06/02 02:42:34;;;;;;;6.85;6.05;;;;;;;;;;4983350;28;20421;-69
2022/06/02 02:45:06;;;;;;;6.75;5.93;;;;;;;;;;4982699;28;20032;-68
2022/06/02 02:47:44;;;;;;;5.45;4.95;;;;;;;;;;4983468;28;20099;-68
2022/06/02 02:50:10;;;;;;;5.80;5.07;;;;;;;;;;4981140;28;20159;-69
2022/06/02 02:52:44;;;;;;;5.07;4.68;;;;;;;;;;5001391;28;20117;-68
2022/06/02 02:55:09;;;;;;;6.00;4.85;;;;;;;;;;4974643;28;20068;-68
2022/06/02 02:57:34;;;;;;;4.95;4.47;;;;;;;;;;5001382;28;20392;-69
2022/06/02 03:00:09;;;;;;;5.40;4.90;;;;;;;;;;4998928;28;20018;-69
2022/06/02 03:02:37;;;;;;;5.47;5.05;;;;;;;;;;5002578;28;20065;-68
2022/06/02 03:05:08;;;;;;;5.15;4.72;;;;;;;;;;4982660;28;20112;-69
2022/06/02 03:07:33;;;;;;;5.45;4.95;;;;;;;;;;5000921;28;20025;-68
2022/06/02 03:10:04;;;;;;;7.35;4.88;;;;;;;;;;4997237;28;20030;-69
2022/06/02 03:12:48;;;;;;;4.97;4.57;;;;;;;;;;4984364;28;20045;-69
2022/06/02 03:15:18;;;;;;;6.05;5.18;;;;;;;;;;4979782;28;20089;-68
2022/06/02 03:17:44;;;;;;;5.97;4.95;;;;;;;;;;5001287;28;20216;-68
2022/06/02 03:20:09;;;;;;;5.80;5.30;;;;;;;;;;4996378;28;20133;-68
2022/06/02 03:22:40;;;;;;;5.50;5.00;;;;;;;;;;4999248;28;20491;-69
2022/06/02 03:25:05;;;;;;;5.30;4.82;;;;;;;;;;4994991;28;20036;-68
2022/06/02 03:27:43;;;;;;;5.47;4.97;;;;;;;;;;4982520;28;20029;-67
2022/06/02 03:30:30;;;;;;;5.30;4.80;;;;;;;;;;4979243;28;20018;-68
2022/06/02 03:32:58;;;;;;;5.80;5.30;;;;;;;;;;5000708;28;20483;-69
2022/06/02 03:35:37;;;;;;;6.93;4.50;;;;;;;;;;4978996;28;20939;-68
2022/06/02 03:38:13;;;;;;;5.50;5.00;;;;;;;;;;4978973;28;20014;-68
2022/06/02 03:40:57;;;;;;;5.20;4.70;;;;;;;;;;4978006;28;20026;-69
2022/06/02 03:43:41;;;;;;;5.22;4.82;;;;;;;;;;4997154;28;20030;-68
2022/06/02 03:46:19;;;;;;;5.80;5.10;;;;;;;;;;4997738;28;20022;-70
2022/06/02 03:48:52;;;;;;;5.47;4.88;;;;;;;;;;4985968;28;20676;-68
2022/06/02 03:51:21;;;;;;;5.68;4.80;;;;;;;;;;4985271;28;20053;-68
2022/06/02 03:54:01;;;;;;;5.30;4.88;;;;;;;;;;5001485;28;20037;-69
2022/06/02 03:56:48;;;;;;;5.60;5.18;;;;;;;;;;4996005;28;20350;-70
2022/06/02 03:59:27;;;;;;;5.53;5.00;;;;;;;;;;5000896;28;20029;-68
2022/06/02 04:02:00;;;;;;;5.70;4.82;;;;;;;;;;5002294;28;20034;-68
2022/06/02 04:04:28;;;;;;;5.82;5.22;;;;;;;;;;5001609;28;20518;-68
2022/06/02 04:07:11;;;;;;;7.00;5.65;;;;;;;;;;4986180;28;20034;-69
2022/06/02 04:09:58;;;;;;;5.78;5.28;;;;;;;;;;5005325;28;20535;-69
2022/06/02 04:15:33;;;;;;;6.38;5.50;;;;;;;;;;4999429;28;20384;-69
2022/06/02 04:18:09;;;;;;;6.65;5.88;;;;;;;;;;4986011;28;20072;-68
2022/06/02 04:20:44;;;;;;;6.50;5.90;;;;;;;;;;4983506;28;20049;-69
2022/06/02 04:23:28;;;;;;;6.68;6.07;;;;;;;;;;4998961;28;20101;-68
2022/06/02 04:25:56;;;;;;;6.78;6.13;;;;;;;;;;5000392;28;20018;-68
2022/06/02 04:28:45;;;;;;;8.43;6.10;;;;;;;;;;4983698;28;20361;-68
2022/06/02 04:31:19;;;;;;;6.88;5.88;;;;;;;;;;4990902;28;20033;-68
2022/06/02 04:33:58;;;;;;;6.47;5.85;;;;;;;;;;4986653;28;20037;-68
2022/06/02 04:36:23;;;;;;;6.30;5.53;;;;;;;;;;4983274;28;20500;-69
2022/06/02 04:38:57;;;;;;;6.70;5.75;;;;;;;;;;5000935;28;20108;-69
2022/06/02 04:41:35;;;;;;;6.93;6.22;;;;;;;;;;4996888;28;20042;-68
2022/06/02 04:44:07;;;;;;;6.82;6.13;;;;;;;;;;5003490;28;20472;-68
2022/06/02 04:46:55;;;;;;;8.00;6.40;;;;;;;;;;4982107;28;20294;-69
2022/06/02 04:49:24;;;;;;;6.35;5.75;;;;;;;;;;4984921;28;20055;-69
2022/06/02 04:51:55;;;;;;;7.30;6.18;;;;;;;;;;4985087;28;20033;-68
2022/06/02 04:54:27;;;;;;;6.65;6.00;;;;;;;;;;4981052;28;20022;-69
2022/06/02 04:56:52;;;;;;;7.07;6.38;;;;;;;;;;4980143;28;20030;-68
2022/06/02 04:59:21;;;;;;;7.47;6.78;;;;;;;;;;4981209;28;20476;-68
2022/06/02 05:02:04;;;;;;;6.93;6.28;;;;;;;;;;5003436;28;20112;-70
2022/06/02 05:04:35;;;;;;;7.40;6.80;;;;;;;;;;5000845;28;20131;-69
2022/06/02 05:07:10;;;;;;;8.70;6.70;;;;;;;;;;4983075;28;20029;-69
2022/06/02 05:09:46;;;;;;;7.93;6.88;;;;;;;;;;4982047;28;20407;-69
2022/06/02 05:12:12;;;;;;;8.02;7.22;;;;;;;;;;4978090;28;20075;-68
2022/06/02 05:14:57;;;;;;;8.65;7.60;;;;;;;;;;4981644;28;20014;-68
2022/06/02 05:17:40;;;;;;;8.90;7.78;;;;;;;;;;4983524;28;20088;-69
2022/06/02 05:20:24;;;;;;;8.20;7.43;;;;;;;;;;5002211;28;20022;-68
2022/06/02 05:23:08;;;;;;;8.50;7.70;;;;;;;;;;4983206;28;20083;-68
2022/06/02 05:25:51;;;;;;;8.85;7.97;;;;;;;;;;4995136;28;20034;-68
2022/06/02 05:28:26;;;;;;;9.35;8.45;;;;;;;;;;4999603;28;20018;-67
2022/06/02 05:30:51;;;;;;;9.50;8.57;;;;;;;;;;4999205;28;20115;-68
2022/06/02 05:33:35;;;;;;;9.18;8.27;;;;;;;;;;4985612;28;20045;-68
2022/06/02 05:36:09;;;;;;;9.90;9.00;;;;;;;;;;5000077;28;20018;-69
2022/06/02 05:38:43;;;;;;;10.18;9.15;;;;;;;;;;5000016;28;20386;-68
2022/06/02 05:41:19;;;;;;;12.73;11.50;;;;;;;;;;4995619;28;20029;-68
2022/06/02 05:43:44;;;;;;;12.70;11.60;;;;;;;;;;5001733;28;20080;-68
2022/06/02 05:46:28;;;;;;;13.65;12.25;;;;;;;;;;4981069;28;20025;-68
2022/06/02 05:49:02;;;;;;;12.13;10.93;;;;;;;;;;5002127;28;20107;-70
2022/06/02 05:51:33;;;;;;;11.68;10.70;;;;;;;;;;4980073;28;20284;-68
2022/06/02 05:53:58;;;;;;;12.43;11.20;;;;;;;;;;4999284;28;20025;-68
2022/06/02 05:56:29;;;;;;;10.70;9.68;;;;;;;;;;4993691;28;20014;-70
2022/06/02 05:59:04;;;;;;;10.98;9.90;;;;;;;;;;5000004;28;20073;-68
2022/06/02 06:01:47;;;;;;;11.82;10.75;;;;;;;;;;4998447;28;20018;-68
2022/06/02 06:04:26;;;;;;;11.57;10.48;;;;;;;;;;4998614;28;20034;-69
2022/06/02 06:06:54;;;;;;;10.95;9.95;;;;;;;;;;4997721;28;20120;-69
2022/06/02 06:09:28;;;;;;;10.02;9.05;;;;;;;;;;4978241;28;20113;-67
2022/06/02 06:11:54;;;;;;;11.50;10.13;;;;;;;;;;4995651;28;20044;-68
2022/06/02 06:14:27;;;;;;;10.55;9.63;;;;;;;;;;4982594;28;20112;-67
2022/06/02 06:17:05;;;;;;;10.82;9.82;;;;;;;;;;4994721;28;20014;-68
2022/06/02 06:19:40;;;;;;;11.38;10.27;;;;;;;;;;4997904;28;20018;-68
2022/06/02 06:22:32;;;;;;;10.00;9.00;;;;;;;;;;4980671;28;20028;-68
2022/06/02 06:25:09;;;;;;;9.18;6.95;;;;;;;;;;4969722;28;20685;-68
2022/06/02 06:27:38;;;;;;;6.65;6.05;;;;;;;;;;4995155;28;20080;-69
2022/06/02 06:30:06;;;;;;;8.45;6.18;;;;;;;;;;4982587;28;20361;-69
2022/06/02 06:32:54;;;;;;;5.70;5.25;;;;;;;;;;4996498;28;20169;-69
2022/06/02 06:35:33;;;;;;;7.32;6.05;;;;;;;;;;4986816;28;20037;-68
2022/06/02 06:38:04;;;;;;;8.63;5.50;;;;;;;;;;4996392;28;20113;-68
2022/06/02 06:40:48;;;;;;;6.07;4.93;;;;;;;;;;4994168;28;20020;-70
2022/06/02 06:43:27;;;;;;;5.55;5.05;;;;;;;;;;4997833;28;20052;-69
2022/06/02 06:45:59;;;;;;;6.72;5.88;;;;;;;;;;4982450;28;20030;-68
2022/06/02 06:48:32;;;;;;;7.80;6.97;;;;;;;;;;4980990;28;20065;-70
2022/06/02 06:51:13;;;;;;;8.32;6.30;;;;;;;;;;4983063;28;20029;-70
2022/06/02 06:53:57;;;;;;;7.95;6.93;;;;;;;;;;4995770;28;20018;-69
2022/06/02 06:56:29;;;;;;;9.05;5.82;;;;;;;;;;4976644;28;20018;-69
2022/06/02 06:59:18;;;;;;;4.07;3.67;;;;;;;;;;4983660;28;20041;-68
2022/06/02 07:01:43;;;;;;;5.07;3.90;;;;;;;;;;4978269;28;20266;-69
2022/06/02 07:04:24;;;;;;;5.68;3.25;;;;;;;;;;5000696;28;20061;-68
2022/06/02 07:06:55;;;;;;;4.57;3.97;;;;;;;;;;4983600;28;20125;-69
2022/06/02 07:09:33;;;;;;;6.43;4.40;;;;;;;;;;4983731;28;20040;-68
2022/06/02 07:14:52;;;;;;;5.63;3.70;;;;;;;;;;4998556;28;20373;-68
2022/06/02 07:17:23;;;;;;;5.40;3.80;;;;;;;;;;4982814;28;20018;-69
2022/06/02 07:19:55;;;;;;;4.68;3.67;;;;;;;;;;4984100;28;20045;-68
2022/06/02 07:22:24;;;;;;;5.78;3.72;;;;;;;;;;4984280;28;20441;-69
2022/06/02 07:24:53;;;;;;;4.68;3.33;;;;;;;;;;4987188;28;20014;-69
2022/06/02 07:27:26;;;;;;;5.90;3.20;;;;;;;;;;5001387;28;20022;-70
2022/06/02 07:30:07;;;;;;;6.10;3.50;;;;;;;;;;4988757;28;20048;-69
2022/06/02 07:32:51;;;;;;;6.05;2.78;;;;;;;;;;4985370;28;20018;-70
2022/06/02 07:35:35;;;;;;;3.53;3.17;;;;;;;;;;5004756;28;20442;-69
2022/06/02 07:38:11;;;;;;;3.50;3.15;;;;;;;;;;4981987;28;20485;-69
2022/06/02 07:40:52;;;;;;;2.88;2.67;;;;;;;;;;4999557;28;20037;-69
2022/06/02 07:43:23;;;;;;;4.35;2.60;;;;;;;;;;5003766;28;20034;-69
2022/06/02 07:45:49;;;;;;;6.27;3.60;;;;;;;;;;4982465;28;20869;-69
2022/06/02 07:48:30;;;;;;;4.33;3.00;;;;;;;;;;5004203;28;20050;-69
2022/06/02 07:50:59;;;;;;;4.10;2.40;;;;;;;;;;5003292;28;20346;-69
2022/06/02 07:53:24;;;;;;;3.63;2.50;;;;;;;;;;5000801;28;20057;-68
2022/06/02 07:55:54;;;;;;;3.53;2.70;;;;;;;;;;4977857;28;20118;-68
2022/06/02 07:58:29;;;;;;;3.80;2.70;;;;;;;;;;5003503;28;20056;-68
2022/06/02 08:01:08;;;;;;;7.30;2.83;;;;;;;;;;4987299;28;20029;-69
2022/06/02 08:03:47;;;;;;;4.43;2.60;;;;;;;;;;5002544;28;20021;-69
2022/06/02 08:06:18;;;;;;;4.47;2.65;;;;;;;;;;5005564;28;20029;-68
2022/06/02 08:08:52;;;;;;;5.15;2.88;;;;;;;;;;5001099;28;20032;-68
2022/06/02 08:11:31;;;;;;;4.40;2.70;;;;;;;;;;5002176;28;20101;-67
2022/06/02 08:14:02;;;;;;;3.88;2.70;;;;;;;;;;4984537;28;20036;-68
2022/06/02 08:16:30;;;;;;;3.90;2.40;;;;;;;;;;5001673;28;20399;-68
2022/06/02 08:18:58;;;;;;;3.45;2.65;;;;;;;;;;4985510;28;20433;-68
2022/06/02 08:21:26;;;;;;;3.25;2.20;;;;;;;;;;5004079;28;20483;-69
2022/06/02 08:24:18;;;;;;;5.03;2.75;;;;;;;;;;4981393;28;20045;-68
2022/06/02 08:26:49;;;;;;;3.83;2.70;;;;;;;;;;4996704;28;20385;-69
2022/06/02 08:29:25;;;;;;;5.47;2.55;;;;;;;;;;4986688;28;20441;-68
2022/06/02 08:32:04;;;;;;;3.50;2.40;;;;;;;;;;5001373;28;20132;-69
2022/06/02 08:34:36;;;;;;;3.70;2.40;;;;;;;;;;4986475;28;20369;-68
2022/06/02 08:37:14;;;;;;;4.85;2.50;;;;;;;;;;4980758;28;20046;-68
2022/06/02 08:39:58;;;;;;;2.95;2.65;;;;;;;;;;4986045;28;20372;-69
2022/06/02 08:42:44;;;;;;;4.00;3.00;;;;;;;;;;4980249;28;20106;-69
2022/06/02 08:45:18;;;;;;;3.08;2.30;;;;;;;;;;4985158;28;20030;-69
2022/06/02 08:47:58;;;;;;;3.80;2.85;;;;;;;;;;4998988;28;20132;-68
2022/06/02 08:50:42;;;;;;;4.00;2.42;;;;;;;;;;5002019;28;20472;-68
2022/06/02 08:53:25;;;;;;;4.13;2.20;;;;;;;;;;5001341;28;20128;-70
2022/06/02 08:55:57;;;;;;;7.65;2.70;;;;;;;;;;4979600;28;20032;-68
2022/06/02 08:58:23;;;;;;;7.03;2.53;;;;;;;;;;4983687;28;20121;-69
2022/06/02 09:00:48;;;;;;;2.73;2.40;;;;;;;;;;5000277;28;20100;-69
2022/06/02 09:03:23;;;;;;;4.57;2.40;;;;;;;;;;4999189;28;20290;-69
2022/06/02 09:06:06;;;;;;;3.75;2.08;;;;;;;;;;4999411;28;20245;-68
2022/06/02 09:08:32;;;;;;;6.47;2.20;;;;;;;;;;5001133;28;20502;-67
2022/06/02 09:11:27;;;;;;;4.32;2.47;;;;;;;;;;4981975;28;20030;-67
2022/06/02 09:13:55;;;;;;;3.17;1.90;;;;;;;;;;4979386;28;20045;-68
2022/06/02 09:16:22;;;;;;;4.80;2.10;;;;;;;;;;5001123;28;20488;-68
2022/06/02 09:18:50;;;;;;;3.47;2.00;;;;;;;;;;5001378;28;20211;-68
2022/06/02 09:21:18;;;;;;;4.72;2.30;;;;;;;;;;5003151;28;20022;-69
2022/06/02 09:23:46;;;;;;;3.70;2.17;;;;;;;;;;4981660;28;20530;-68
2022/06/02 09:26:12;;;;;;;4.45;2.00;;;;;;;;;;5000807;28;20365;-68
2022/06/02 09:28:40;;;;;;;2.05;1.90;;;;;;;;;;4978675;28;20030;-68
2022/06/02 09:31:24;;;;;;;2.20;2.00;;;;;;;;;;5002468;28;20014;-68
2022/06/02 09:34:04;;;;;;;4.50;2.13;;;;;;;;;;4981841;28;20121;-67
2022/06/02 09:36:47;;;;;;;2.83;2.00;;;;;;;;;;4982431;28;20018;-69
2022/06/02 09:39:13;;;;;;;4.13;2.15;;;;;;;;;;4998677;28;20014;-68
2022/06/02 09:41:52;;;;;;;2.77;1.77;;;;;;;;;;4999500;28;20028;-68
2022/06/02 09:44:26;;;;;;;5.57;2.08;;;;;;;;;;4998947;28;20259;-69
2022/06/02 09:47:10;;;;;;;4.10;1.90;;;;;;;;;;4980509;28;20499;-69
2022/06/02 09:49:44;;;;;;;2.10;1.65;;;;;;;;;;4983449;28;20026;-69
2022/06/02 09:52:15;;;;;;;5.38;2.00;;;;;;;;;;4980257;28;20026;-68
2022/06/02 09:54:50;;;;;;;3.67;1.90;;;;;;;;;;4982271;28;20038;-68
2022/06/02 10:00:18;;;;;;;2.17;2.08;;;;;;;;;;4997741;28;20514;-68
2022/06/02 10:02:46;;;;;;;2.65;1.88;;;;;;;;;;4999525;28;20025;-68
2022/06/02 10:05:22;;;;;;;2.47;1.67;;;;;;;;;;4983065;28;20010;-69
2022/06/02 10:07:56;;;;;;;2.92;1.60;;;;;;;;;;4998845;28;20041;-68
2022/06/02 10:11:00;;;;;;;2.55;1.90;;;;;;;;;;4982560;28;20026;-69
2022/06/02 10:13:31;;;;;;;4.28;1.75;;;;;;;;;;4923162;29;20015;-69
2022/06/02 10:16:16;;;;;;;3.47;1.80;;;;;;;;;;4921194;29;20074;-67
2022/06/02 10:19:00;;;;;;;2.20;1.73;;;;;;;;;;4971902;28;20030;-66
2022/06/02 10:21:32;;;;;;;2.17;1.73;;;;;;;;;;5002256;28;20100;-68
2022/06/02 10:24:16;;;;;;;1.77;1.45;;;;;;;;;;4997081;28;20624;-68
2022/06/02 10:26:55;;;;;;;2.72;1.52;;;;;;;;;;4980023;28;20096;-68
2022/06/02 10:29:41;;;;;;;2.05;1.20;;;;;;;;;;4979583;28;20022;-68
2022/06/02 10:32:20;;;;;;;1.55;1.38;;;;;;;;;;4968014;28;20120;-67
2022/06/02 10:35:06;;;;;;;3.65;1.50;;;;;;;;;;4999950;28;20547;-67
2022/06/02 10:37:42;;;;;;;3.80;1.60;;;;;;;;;;4998188;28;20022;-68
2022/06/02 10:40:14;;;;;;;1.60;1.50;;;;;;;;;;4982252;28;20452;-68
2022/06/02 10:42:57;;;;;;;2.63;1.40;;;;;;;;;;4999306;28;20029;-68
2022/06/02 10:45:25;;;;;;;1.85;1.30;;;;;;;;;;4999935;28;20014;-68
2022/06/02 10:48:09;;;;;;;2.70;1.45;;;;;;;;;;4979669;28;20050;-67
2022/06/02 10:50:49;;;;;;;2.15;1.35;;;;;;;;;;5000414;28;20022;-67
2022/06/02 10:53:17;;;;;;;2.42;1.60;;;;;;;;;;4979853;28;20168;-68
2022/06/02 10:55:48;;;;;;;2.97;1.30;;;;;;;;;;4998787;28;20018;-68
2022/06/02 10:58:37;;;;;;;1.50;1.40;;;;;;;;;;4981745;28;20018;-68
2022/06/02 11:01:08;;;;;;;2.15;1.33;;;;;;;;;;4981362;28;20195;-67
2022/06/02 11:04:03;;;;;;;1.30;1.20;;;;;;;;;;4984813;28;20080;-67
2022/06/02 11:06:47;;;;;;;2.17;1.58;;;;;;;;;;4928976;28;20043;-67
2022/06/02 11:09:21;;;;;;;3.00;1.58;;;;;;;;;;4998199;28;20021;-67
2022/06/02 11:12:01;;;;;;;2.30;1.13;;;;;;;;;;4994527;28;20306;-67
2022/06/02 11:14:45;;;;;;;1.83;1.27;;;;;;;;;;5000872;28;20030;-68
2022/06/02 11:17:28;;;;;;;2.17;1.30;;;;;;;;;;4980833;28;20025;-70
2022/06/02 11:19:57;;;;;;;2.53;1.30;;;;;;;;;;4996112;28;20018;-68
2022/06/02 11:22:36;;;;;;;3.95;1.70;;;;;;;;;;4980827;28;20278;-68
2022/06/02 11:25:20;;;;;;;1.80;1.20;;;;;;;;;;4996371;28;20079;-68
2022/06/02 11:27:52;;;;;;;3.33;1.30;;;;;;;;;;5001264;28;20038;-67
2022/06/02 11:30:36;;;;;;;2.00;1.10;;;;;;;;;;4981378;28;20471;-68
2022/06/02 11:33:13;;;;;;;3.20;1.30;;;;;;;;;;4980256;28;20401;-68
2022/06/02 11:35:57;;;;;;;1.85;1.35;;;;;;;;;;4983349;28;20018;-68
2022/06/02 11:38:41;;;;;;;2.05;1.05;;;;;;;;;;4998603;28;20109;-70
2022/06/02 11:41:06;;;;;;;1.67;1.30;;;;;;;;;;4997484;28;20022;-68
2022/06/02 11:43:44;;;;;;;2.25;1.20;;;;;;;;;;4980346;28;20037;-69
2022/06/02 11:46:22;;;;;;;2.13;1.10;;;;;;;;;;4979790;28;20311;-70
2022/06/02 11:49:14;;;;;;;4.07;1.00;;;;;;;;;;5000415;28;20049;-69
2022/06/02 11:51:42;;;;;;;2.22;1.00;;;;;;;;;;4983522;28;20022;-68
2022/06/02 11:54:11;;;;;;;1.48;1.00;;;;;;;;;;4979245;28;20088;-68
2022/06/02 11:56:55;;;;;;;1.25;0.90;;;;;;;;;;4980974;28;20113;-68
2022/06/02 11:59:38;;;;;;;1.10;0.90;;;;;;;;;;4979992;28;20456;-68
2022/06/02 12:02:06;;;;;;;1.70;0.90;;;;;;;;;;4997379;28;20666;-68
2022/06/02 12:04:41;;;;;;;2.10;0.90;;;;;;;;;;4983976;28;20049;-68
2022/06/02 12:07:21;;;;;;;1.75;0.80;;;;;;;;;;4996753;28;20250;-67
2022/06/02 12:10:07;;;;;;;1.67;0.82;;;;;;;;;;5002560;28;20032;-69
2022/06/02 12:12:51;;;;;;;2.13;1.00;;;;;;;;;;4988534;28;20285;-69
2022/06/02 12:15:19;;;;;;;1.30;0.80;;;;;;;;;;4981996;28;20026;-68
2022/06/02 12:17:44;;;;;;;1.80;0.77;;;;;;;;;;5004548;28;20022;-69
2022/06/02 12:20:16;;;;;;;2.25;0.93;;;;;;;;;;5001821;28;20588;-67
2022/06/02 12:22:50;;;;;;;3.33;1.00;;;;;;;;;;5002863;28;20446;-68
2022/06/02 12:25:34;;;;;;;3.15;1.25;;;;;;;;;;4983946;28;20324;-69
2022/06/02 12:28:02;;;;;;;2.45;0.73;;;;;;;;;;4999554;28;20014;-69
2022/06/02 12:30:33;;;;;;;0.95;0.70;;;;;;;;;;4980981;28;20061;-70
2022/06/02 12:33:05;;;;;;;1.45;1.00;;;;;;;;;;4984319;28;20030;-68
2022/06/02 12:35:43;;;;;;;1.98;1.00;;;;;;;;;;4998834;28;20021;-70
2022/06/02 12:38:27;;;;;;;0.93;0.70;;;;;;;;;;4998957;28;20406;-69
2022/06/02 12:41:11;;;;;;;1.23;0.73;;;;;;;;;;4979077;28;20184;-68
2022/06/02 12:44:02;;;;;;;1.08;0.70;;;;;;;;;;4962728;28;20065;-70
2022/06/02 12:46:34;;;;;;;3.28;0.90;;;;;;;;;;4982429;28;20519;-70
2022/06/02 12:49:16;;;;;;;2.22;1.00;;;;;;;;;;4965687;28;20436;-68
2022/06/02 12:51:51;;;;;;;3.28;1.10;;;;;;;;;;4982922;28;20050;-68
2022/06/02 12:54:35;;;;;;;1.40;0.90;;;;;;;;;;4961891;28;20046;-68
2022/06/02 12:57:03;;;;;;;1.25;0.90;;;;;;;;;;4959489;28;20104;-71
2022/06/02 12:59:57;;;;;;;1.67;1.00;;;;;;;;;;4965784;28;20105;-70
2022/06/02 13:02:29;;;;;;;2.10;1.00;;;;;;;;;;4982654;28;20505;-69
2022/06/02 13:05:09;;;;;;;2.80;1.08;;;;;;;;;;4983112;28;20026;-70
2022/06/02 13:07:45;;;;;;;0.90;0.90;;;;;;;;;;4983526;28;20029;-69
2022/06/02 13:10:10;;;;;;;1.73;1.00;;;;;;;;;;4979124;28;20029;-69
2022/06/02 13:12:38;;;;;;;2.43;1.10;;;;;;;;;;4996432;28;20245;-70
2022/06/02 13:15:22;;;;;;;3.08;0.90;;;;;;;;;;4978870;28;20266;-70
2022/06/02 13:18:06;;;;;;;1.10;0.98;;;;;;;;;;5003156;28;20030;-68
2022/06/02 13:20:31;;;;;;;2.08;1.08;;;;;;;;;;4985191;28;20022;-70
2022/06/02 13:23:00;;;;;;;1.80;0.90;;;;;;;;;;4982761;28;20083;-70
2022/06/02 13:25:38;;;;;;;1.23;1.00;;;;;;;;;;5000436;28;20266;-68
2022/06/02 13:28:03;;;;;;;1.13;0.95;;;;;;;;;;5000865;28;20022;-69
2022/06/02 13:30:28;;;;;;;2.37;1.20;;;;;;;;;;4998518;28;20499;-69
2022/06/02 13:33:12;;;;;;;2.58;1.23;;;;;;;;;;5002885;28;20430;-68
2022/06/02 13:36:01;;;;;;;2.78;0.95;;;;;;;;;;4982766;28;20096;-68
2022/06/02 13:38:45;;;;;;;3.08;1.17;;;;;;;;;;4965249;28;20037;-69
2022/06/02 13:41:21;;;;;;;1.67;1.00;;;;;;;;;;4980779;28;20041;-71
2022/06/02 13:44:13;;;;;;;2.05;1.10;;;;;;;;;;4985824;28;20284;-70
2022/06/02 13:46:56;;;;;;;1.55;1.20;;;;;;;;;;5001665;28;20018;-69
2022/06/02 13:49:34;;;;;;;1.33;0.95;;;;;;;;;;4981600;28;20037;-69
2022/06/02 13:52:19;;;;;;;2.33;1.10;;;;;;;;;;4999949;28;20061;-68
2022/06/02 13:58:16;;;;;;;2.05;1.00;;;;;;;;;;5003359;28;20029;-70
2022/06/02 14:00:51;;;;;;;2.17;1.15;;;;;;;;;;4984446;28;20056;-68
2022/06/02 14:03:20;;;;;;;4.30;1.42;;;;;;;;;;4984518;28;20033;-68
2022/06/02 14:06:05;;;;;;;1.45;1.15;;;;;;;;;;4982258;28;20022;-69
2022/06/02 14:08:31;;;;;;;1.75;1.20;;;;;;;;;;4983166;28;20026;-69
2022/06/02 14:11:05;;;;;;;2.63;1.20;;;;;;;;;;5000183;28;20044;-69
2022/06/02 14:13:33;;;;;;;2.67;1.33;;;;;;;;;;5001166;28;20029;-69
2022/06/02 14:16:10;;;;;;;1.83;1.10;;;;;;;;;;5000598;28;20153;-68
2022/06/02 14:18:54;;;;;;;1.58;1.40;;;;;;;;;;5001471;28;20355;-68
2022/06/02 14:21:26;;;;;;;3.05;1.30;;;;;;;;;;4980696;28;20022;-68
2022/06/02 14:24:21;;;;;;;1.73;1.43;;;;;;;;;;5002899;28;20449;-69
2022/06/02 14:27:10;;;;;;;2.80;1.80;;;;;;;;;;4929679;28;20119;-67
2022/06/02 14:29:44;;;;;;;3.35;1.60;;;;;;;;;;5000054;28;20472;-69
2022/06/02 14:32:21;;;;;;;1.65;1.40;;;;;;;;;;4980491;28;20026;-68
2022/06/02 14:35:05;;;;;;;2.63;1.35;;;;;;;;;;4981268;28;20036;-69
2022/06/02 14:37:39;;;;;;;2.45;1.40;;;;;;;;;;5001553;28;20100;-68
2022/06/02 14:40:19;;;;;;;3.58;1.80;;;;;;;;;;4995705;28;20205;-69
2022/06/02 14:43:07;;;;;;;1.73;1.52;;;;;;;;;;5001584;28;20017;-71
2022/06/02 14:45:46;;;;;;;4.18;1.70;;;;;;;;;;4980639;28;20022;-69
2022/06/02 14:48:25;;;;;;;2.45;1.73;;;;;;;;;;4979731;28;20038;-70
2022/06/02 14:51:08;;;;;;;3.25;1.70;;;;;;;;;;4997338;28;20495;-69
2022/06/02 14:53:46;;;;;;;2.60;1.65;;;;;;;;;;5000681;28;20046;-69
2022/06/02 14:56:20;;;;;;;5.38;1.50;;;;;;;;;;4979355;28;20097;-70
2022/06/02 14:59:09;;;;;;;1.40;1.30;;;;;;;;;;5002111;28;20392;-70
2022/06/02 15:01:56;;;;;;;4.22;1.77;;;;;;;;;;4960546;28;20030;-68
2022/06/02 15:04:30;;;;;;;3.17;1.40;;;;;;;;;;4950578;28;20104;-70
2022/06/02 15:06:56;;;;;;;1.55;1.10;;;;;;;;;;4982654;28;20021;-68
2022/06/02 15:09:28;;;;;;;3.53;1.10;;;;;;;;;;4976934;28;20128;-68
2022/06/02 15:12:05;;;;;;;4.60;1.27;;;;;;;;;;4958955;28;20339;-68
2022/06/02 15:14:41;;;;;;;1.65;1.20;;;;;;;;;;4982783;28;20026;-70
2022/06/02 15:17:09;;;;;;;2.55;1.23;;;;;;;;;;4995202;28;20038;-69
2022/06/02 15:19:53;;;;;;;3.15;1.50;;;;;;;;;;4985141;28;20014;-68
2022/06/02 15:22:34;;;;;;;1.95;1.23;;;;;;;;;;4979841;28;20018;-68
2022/06/02 15:25:02;;;;;;;1.65;1.35;;;;;;;;;;5000060;28;20495;-68
2022/06/02 15:27:54;;;;;;;1.88;1.30;;;;;;;;;;4980889;28;20363;-68
2022/06/02 15:30:24;;;;;;;2.92;1.75;;;;;;;;;;4959195;28;20106;-67
2022/06/02 15:33:25;;;;;;;1.77;1.20;;;;;;;;;;4998184;28;20113;-68
2022/06/02 15:35:59;;;;;;;2.35;1.20;;;;;;;;;;4915755;29;20090;-68
2022/06/02 15:38:31;;;;;;;2.63;1.42;;;;;;;;;;4967714;28;20218;-69
2022/06/02 15:40:56;;;;;;;1.73;1.30;;;;;;;;;;4979688;28;20014;-69
2022/06/02 15:43:40;;;;;;;5.93;1.38;;;;;;;;;;4999979;28;20397;-69
2022/06/02 15:46:05;;;;;;;5.32;1.48;;;;;;;;;;4999791;28;20248;-68
2022/06/02 15:48:50;;;;;;;2.15;1.30;;;;;;;;;;4982493;28;20444;-68
2022/06/02 15:51:18;;;;;;;3.60;1.52;;;;;;;;;;4980670;28;20028;-68